createdAt,value
2023-03-22T00:00:31.771Z,100.00
2023-03-22T00:03:28.201Z,100.00
2023-03-22T00:06:03.247Z,100.00
2023-03-22T00:08:35.323Z,100.00
2023-03-22T00:11:10.353Z,100.00
2023-03-22T00:13:44.300Z,100.00
2023-03-22T00:16:16.462Z,100.00
2023-03-22T00:18:48.965Z,100.00
2023-03-22T00:21:21.449Z,100.00
2023-03-22T00:23:53.490Z,100.00
2023-03-22T00:26:29.049Z,100.00
2023-03-22T00:29:04.367Z,100.00
2023-03-22T00:31:36.746Z,100.00
2023-03-22T00:34:08.796Z,100.00
2023-03-22T00:36:40.640Z,100.00
2023-03-22T00:39:12.949Z,100.00
2023-03-22T00:41:48.225Z,100.00
2023-03-22T00:44:36.312Z,100.00
2023-03-22T00:47:09.357Z,100.00
2023-03-22T00:49:42.181Z,100.00
2023-03-22T00:52:13.790Z,100.00
2023-03-22T00:54:55.371Z,100.00
2023-03-22T00:57:36.711Z,100.00
2023-03-22T01:00:32.502Z,100.00
2023-03-22T01:03:08.886Z,100.00
2023-03-22T01:06:29.513Z,100.00
2023-03-22T01:09:24.196Z,100.00
2023-03-22T01:11:56.496Z,100.00
2023-03-22T01:14:31.988Z,100.00
2023-03-22T01:17:04.037Z,100.00
2023-03-22T01:19:36.089Z,100.00
2023-03-22T01:22:09.406Z,100.00
2023-03-22T01:24:43.871Z,100.00
2023-03-22T01:27:15.746Z,100.00
2023-03-22T01:29:50.127Z,100.00
2023-03-22T01:32:22.145Z,100.00
2023-03-22T01:34:53.991Z,100.00
2023-03-22T01:38:20.486Z,100.00
2023-03-22T01:41:13.549Z,100.00
2023-03-22T01:43:45.908Z,100.00
2023-03-22T01:46:21.048Z,100.00
2023-03-22T01:48:53.531Z,100.00
2023-03-22T01:51:28.013Z,100.00
2023-03-22T01:54:04.207Z,100.00
2023-03-22T01:56:39.419Z,100.00
2023-03-22T01:59:14.849Z,100.00
2023-03-22T02:01:50.201Z,100.00
2023-03-22T02:04:25.384Z,100.00
2023-03-22T02:06:58.352Z,100.00
2023-03-22T02:09:33.883Z,100.00
2023-03-22T02:12:20.382Z,100.00
2023-03-22T02:15:07.762Z,100.00
2023-03-22T02:18:00.038Z,100.00
2023-03-22T02:21:10.654Z,100.00
2023-03-22T02:24:12.640Z,100.00
2023-03-22T02:27:10.894Z,100.00
2023-03-22T02:29:47.790Z,100.00
2023-03-22T02:32:55.600Z,100.00
2023-03-22T02:35:46.943Z,100.00
2023-03-22T02:39:00.825Z,100.00
2023-03-22T02:41:46.415Z,100.00
2023-03-22T02:44:30.272Z,100.00
2023-03-22T02:47:08.114Z,100.00
2023-03-22T02:49:44.771Z,100.00
2023-03-22T02:52:22.238Z,100.00
2023-03-22T02:54:59.784Z,100.00
2023-03-22T02:57:40.210Z,100.00
2023-03-22T03:00:16.221Z,100.00
2023-03-22T03:02:54.288Z,100.00
2023-03-22T03:05:28.677Z,100.00
2023-03-22T03:08:04.218Z,100.00
2023-03-22T03:11:07.952Z,100.00
2023-03-22T03:13:42.953Z,100.00
2023-03-22T03:16:17.794Z,100.00
2023-03-22T03:18:56.429Z,100.00
2023-03-22T03:21:35.175Z,100.00
2023-03-22T03:24:22.932Z,100.00
2023-03-22T03:27:04.340Z,100.00
2023-03-22T03:29:43.732Z,100.00
2023-03-22T03:32:22.807Z,100.00
2023-03-22T03:34:59.780Z,100.00
2023-03-22T03:37:37.362Z,100.00
2023-03-22T03:40:14.284Z,100.00
2023-03-22T03:42:52.028Z,100.00
2023-03-22T03:45:27.431Z,100.00
2023-03-22T03:48:04.063Z,100.00
2023-03-22T03:50:36.356Z,100.00
2023-03-22T03:53:08.590Z,100.00
2023-03-22T03:55:40.844Z,100.00
2023-03-22T03:58:12.809Z,100.00
2023-03-22T04:00:48.241Z,100.00
2023-03-22T04:03:20.337Z,100.00
2023-03-22T04:05:52.800Z,100.00
2023-03-22T04:08:24.878Z,100.00
2023-03-22T04:10:57.371Z,100.00
2023-03-22T04:13:30.081Z,100.00
2023-03-22T04:16:05.272Z,100.00
2023-03-22T04:18:37.440Z,100.00
2023-03-22T04:21:12.495Z,100.00
2023-03-22T04:23:47.132Z,100.00
2023-03-22T04:26:19.660Z,100.00
2023-03-22T04:28:52.032Z,100.00
2023-03-22T04:31:27.354Z,100.00
2023-03-22T04:34:05.915Z,100.00
2023-03-22T04:36:40.188Z,100.00
2023-03-22T04:39:14.219Z,100.00
2023-03-22T04:41:46.731Z,100.00
2023-03-22T04:44:18.769Z,100.00
2023-03-22T04:46:54.512Z,100.00
2023-03-22T04:49:27.321Z,100.00
2023-03-22T04:51:59.649Z,100.00
2023-03-22T04:54:31.630Z,100.00
2023-03-22T04:57:04.109Z,100.00
2023-03-22T04:59:36.238Z,100.00
2023-03-22T05:02:11.150Z,100.00
2023-03-22T05:04:43.176Z,100.00
2023-03-22T05:07:15.569Z,100.00
2023-03-22T05:09:47.602Z,100.00
2023-03-22T05:12:19.879Z,100.00
2023-03-22T05:14:51.879Z,100.00
2023-03-22T05:17:27.039Z,100.00
2023-03-22T05:19:59.069Z,100.00
2023-03-22T05:22:38.380Z,100.00
2023-03-22T05:25:15.298Z,100.00
2023-03-22T05:27:50.524Z,100.00
2023-03-22T05:30:23.159Z,100.00
2023-03-22T05:33:00.799Z,100.00
2023-03-22T05:35:35.062Z,100.00
2023-03-22T05:38:07.954Z,100.00
2023-03-22T05:40:40.353Z,100.00
2023-03-22T05:43:13.279Z,100.00
2023-03-22T05:45:46.047Z,100.00
2023-03-22T05:48:21.249Z,100.00
2023-03-22T05:51:27.518Z,100.00
2023-03-22T05:54:01.408Z,100.00
2023-03-22T05:56:37.065Z,100.00
2023-03-22T05:59:10.188Z,100.00
2023-03-22T06:01:43.885Z,100.00
2023-03-22T06:04:18.893Z,100.00
2023-03-22T06:06:50.782Z,100.00
2023-03-22T06:09:23.148Z,99.75
2023-03-22T06:11:54.852Z,99.45
2023-03-22T06:14:26.962Z,98.93
2023-03-22T06:16:58.519Z,99.78
2023-03-22T06:19:33.369Z,99.00
2023-03-22T06:22:05.213Z,98.96
2023-03-22T06:24:37.404Z,98.83
2023-03-22T06:27:10.372Z,100.00
2023-03-22T06:29:42.709Z,98.97
2023-03-22T06:32:14.497Z,97.33
2023-03-22T06:34:49.283Z,98.12
2023-03-22T06:37:21.101Z,99.16
2023-03-22T06:39:54.015Z,98.30
2023-03-22T06:42:26.534Z,98.68
2023-03-22T06:44:58.120Z,98.29
2023-03-22T06:47:29.728Z,98.17
2023-03-22T06:50:04.087Z,97.81
2023-03-22T06:52:35.565Z,98.37
2023-03-22T06:55:08.299Z,97.83
2023-03-22T06:57:39.516Z,98.71
2023-03-22T07:00:13.092Z,97.19
2023-03-22T07:02:44.338Z,97.32
2023-03-22T07:05:18.412Z,96.61
2023-03-22T07:07:49.994Z,96.29
2023-03-22T07:10:21.632Z,96.35
2023-03-22T07:12:52.576Z,95.77
2023-03-22T07:15:24.660Z,94.96
2023-03-22T07:17:56.307Z,95.05
2023-03-22T07:20:30.754Z,94.94
2023-03-22T07:23:02.240Z,93.80
2023-03-22T07:25:34.975Z,94.79
2023-03-22T07:28:07.301Z,93.77
2023-03-22T07:30:39.101Z,92.37
2023-03-22T07:33:12.670Z,90.47
2023-03-22T07:35:49.238Z,90.43
2023-03-22T07:38:21.437Z,90.54
2023-03-22T07:40:56.226Z,91.23
2023-03-22T07:43:27.991Z,89.78
2023-03-22T07:46:00.946Z,89.45
2023-03-22T07:48:32.835Z,89.45
2023-03-22T07:51:08.286Z,86.48
2023-03-22T07:53:39.687Z,86.72
2023-03-22T07:56:12.698Z,83.42
2023-03-22T07:58:43.926Z,83.70
2023-03-22T08:01:15.654Z,83.22
2023-03-22T08:03:47.293Z,82.12
2023-03-22T08:06:22.840Z,82.02
2023-03-22T08:08:54.055Z,80.04
2023-03-22T08:11:25.837Z,82.09
2023-03-22T08:13:57.366Z,79.02
2023-03-22T08:16:29.050Z,79.21
2023-03-22T08:19:00.564Z,80.44
2023-03-22T08:21:34.912Z,78.02
2023-03-22T08:24:06.616Z,80.28
2023-03-22T08:26:39.843Z,79.01
2023-03-22T08:29:11.426Z,79.28
2023-03-22T08:31:43.248Z,77.08
2023-03-22T08:34:14.667Z,76.94
2023-03-22T08:36:49.388Z,77.98
2023-03-22T08:39:21.818Z,78.04
2023-03-22T08:41:53.841Z,76.90
2023-03-22T08:44:26.000Z,77.33
2023-03-22T08:46:58.181Z,78.32
2023-03-22T08:49:30.281Z,79.23
2023-03-22T08:52:09.368Z,75.49
2023-03-22T08:54:41.310Z,76.19
2023-03-22T08:57:14.637Z,73.45
2023-03-22T08:59:46.651Z,75.28
2023-03-22T09:02:18.867Z,77.15
2023-03-22T09:04:50.889Z,76.30
2023-03-22T09:07:25.960Z,76.92
2023-03-22T09:09:57.610Z,73.50
2023-03-22T09:12:30.048Z,72.76
2023-03-22T09:15:01.727Z,74.02
2023-03-22T09:17:33.752Z,72.29
2023-03-22T09:20:12.407Z,71.63
2023-03-22T09:22:48.037Z,70.48
2023-03-22T09:25:19.744Z,70.37
2023-03-22T09:27:51.443Z,73.45
2023-03-22T09:30:23.146Z,72.15
2023-03-22T09:32:55.359Z,68.07
2023-03-22T09:35:26.984Z,64.58
2023-03-22T09:38:03.765Z,62.02
2023-03-22T09:40:38.401Z,65.27
2023-03-22T09:43:15.885Z,63.05
2023-03-22T09:45:52.184Z,67.75
2023-03-22T09:48:30.295Z,61.83
2023-03-22T09:51:04.820Z,61.77
2023-03-22T09:53:39.531Z,59.49
2023-03-22T09:56:17.739Z,62.61
2023-03-22T09:58:56.286Z,62.05
2023-03-22T10:01:38.055Z,61.14
2023-03-22T10:04:40.331Z,57.84
2023-03-22T10:07:22.466Z,53.09
2023-03-22T10:10:10.055Z,54.65
2023-03-22T10:12:46.669Z,49.07
2023-03-22T10:15:22.542Z,52.77
2023-03-22T10:17:58.998Z,54.46
2023-03-22T10:20:37.754Z,55.10
2023-03-22T10:23:14.541Z,51.79
2023-03-22T10:25:50.527Z,52.19
2023-03-22T10:28:27.100Z,53.57
2023-03-22T10:31:02.266Z,53.76
2023-03-22T10:33:50.588Z,51.28
2023-03-22T10:36:28.015Z,53.99
2023-03-22T10:39:04.144Z,51.93
2023-03-22T10:41:39.910Z,51.54
2023-03-22T10:44:18.369Z,50.30
2023-03-22T10:46:54.032Z,48.48
2023-03-22T10:49:33.778Z,49.05
2023-03-22T10:52:12.729Z,49.21
2023-03-22T10:54:44.251Z,51.50
2023-03-22T10:57:19.187Z,50.89
2023-03-22T10:59:53.030Z,51.38
2023-03-22T11:02:27.829Z,51.19
2023-03-22T11:05:01.913Z,54.84
2023-03-22T11:07:38.427Z,57.23
2023-03-22T11:10:27.682Z,53.36
2023-03-22T11:13:16.706Z,53.24
2023-03-22T11:15:57.577Z,51.14
2023-03-22T11:18:34.050Z,55.16
2023-03-22T11:21:11.368Z,49.90
2023-03-22T11:23:49.025Z,50.30
2023-03-22T11:26:30.547Z,48.68
2023-03-22T11:29:16.767Z,51.14
2023-03-22T11:32:00.644Z,49.84
2023-03-22T11:34:34.607Z,50.98
2023-03-22T11:37:12.410Z,51.05
2023-03-22T11:40:07.275Z,51.07
2023-03-22T11:43:33.604Z,51.33
2023-03-22T11:47:32.011Z,49.55
2023-03-22T11:51:12.660Z,49.25
2023-03-22T12:03:01.503Z,43.80
2023-03-22T12:10:54.476Z,45.16
2023-03-22T12:14:30.310Z,46.42
2023-03-22T12:18:04.077Z,47.49
2023-03-22T12:21:55.195Z,48.67
2023-03-22T12:28:59.000Z,48.39
2023-03-22T12:32:25.367Z,50.20
2023-03-22T12:36:08.385Z,49.44
2023-03-22T12:40:21.974Z,49.14
2023-03-22T12:44:17.833Z,48.47
2023-03-22T12:51:44.552Z,50.02
2023-03-22T12:58:45.254Z,48.35
2023-03-22T13:01:52.612Z,48.84
2023-03-22T13:08:25.994Z,51.09
2023-03-22T13:11:25.073Z,50.32
2023-03-22T13:13:57.519Z,49.34
2023-03-22T13:17:14.162Z,46.75
2023-03-22T13:20:01.665Z,47.15
2023-03-22T13:22:54.205Z,47.10
2023-03-22T13:25:36.166Z,47.97
2023-03-22T13:28:29.244Z,48.12
2023-03-22T13:31:02.332Z,49.18
2023-03-22T13:33:39.138Z,48.38
2023-03-22T13:36:26.472Z,46.64
2023-03-22T13:38:59.439Z,46.04
2023-03-22T13:41:33.642Z,47.35
2023-03-22T13:44:22.066Z,46.92
2023-03-22T13:46:56.559Z,47.41
2023-03-22T13:50:00.124Z,48.02
2023-03-22T13:52:40.293Z,48.42
2023-03-22T13:55:41.873Z,49.47
2023-03-22T13:58:36.700Z,49.33
2023-03-22T14:01:11.478Z,47.69
2023-03-22T14:03:47.830Z,47.65
2023-03-22T14:06:37.633Z,46.83
2023-03-22T14:09:28.836Z,47.41
2023-03-22T14:12:08.695Z,47.55
2023-03-22T14:14:47.624Z,48.62
2023-03-22T14:17:30.656Z,46.69
2023-03-22T14:20:05.285Z,46.72
2023-03-22T14:53:52.124Z,47.99
2023-03-22T14:56:33.535Z,48.00
2023-03-22T14:59:06.927Z,47.71
2023-03-22T15:01:42.929Z,47.50
2023-03-22T15:04:17.151Z,47.96
2023-03-22T15:06:52.195Z,48.21
2023-03-22T15:09:25.468Z,48.16
2023-03-22T15:12:04.281Z,48.17
2023-03-22T15:14:40.042Z,49.63
2023-03-22T15:17:15.825Z,48.45
2023-03-22T15:19:52.507Z,48.29
2023-03-22T15:22:26.621Z,49.54
2023-03-22T15:25:03.455Z,49.13
2023-03-22T15:27:39.919Z,48.14
2023-03-22T15:30:14.845Z,47.34
2023-03-22T15:32:48.998Z,47.51
2023-03-22T15:35:22.482Z,47.98
2023-03-22T15:37:59.370Z,48.56
2023-03-22T15:40:39.995Z,47.64
2023-03-22T15:43:26.083Z,47.23
2023-03-22T15:46:18.788Z,47.87
2023-03-22T15:55:34.834Z,47.30
2023-03-22T15:58:09.956Z,48.38
2023-03-22T16:00:45.211Z,48.39
2023-03-22T16:03:18.902Z,48.62
2023-03-22T16:05:51.676Z,48.10
2023-03-22T16:08:24.755Z,48.17
2023-03-22T16:10:57.915Z,49.03
2023-03-22T16:13:32.354Z,50.18
2023-03-22T16:16:08.132Z,49.08
2023-03-22T16:18:40.247Z,49.04
2023-03-22T16:21:15.058Z,48.75
2023-03-22T16:23:48.593Z,49.09
2023-03-22T16:26:21.030Z,49.28
2023-03-22T16:28:53.024Z,49.04
2023-03-22T16:31:30.301Z,48.05
2023-03-22T16:34:02.319Z,48.29
2023-03-22T16:36:35.615Z,47.70
2023-03-22T16:39:07.669Z,48.00
2023-03-22T16:41:43.566Z,47.64
2023-03-22T16:44:21.005Z,48.48
2023-03-22T16:46:55.676Z,48.22
2023-03-22T16:49:28.871Z,48.33
2023-03-22T16:52:01.132Z,48.99
2023-03-22T16:54:34.952Z,49.75
2023-03-22T16:57:08.091Z,48.99
2023-03-22T16:59:40.207Z,49.00
2023-03-22T17:02:23.770Z,50.02
2023-03-22T17:04:55.796Z,50.76
2023-03-22T17:07:31.385Z,50.62
2023-03-22T17:10:05.351Z,50.79
2023-03-22T17:12:39.189Z,50.30
2023-03-22T17:15:30.576Z,50.73
2023-03-22T17:18:06.233Z,50.18
2023-03-22T17:20:38.550Z,50.23
2023-03-22T17:23:13.654Z,51.30
2023-03-22T17:25:47.702Z,52.05
2023-03-22T17:28:20.022Z,51.92
2023-03-22T17:30:52.257Z,52.58
2023-03-22T17:33:26.626Z,52.52
2023-03-22T17:35:58.880Z,52.57
2023-03-22T17:38:36.196Z,52.35
2023-03-22T17:41:19.496Z,52.31
2023-03-22T17:43:51.278Z,53.33
2023-03-22T17:49:02.517Z,53.06
2023-03-22T17:51:35.176Z,52.87
2023-03-22T17:54:49.232Z,53.51
2023-03-22T17:57:32.960Z,53.52
2023-03-22T17:59:53.979Z,53.40
2023-03-22T18:02:27.864Z,52.76
2023-03-22T18:05:03.480Z,52.74
2023-03-22T18:07:36.532Z,52.86
2023-03-22T18:10:10.552Z,53.85
2023-03-22T18:12:45.632Z,53.09
2023-03-22T18:15:20.933Z,54.58
2023-03-22T18:17:55.736Z,53.20
2023-03-22T18:23:21.204Z,53.19
2023-03-22T18:26:01.944Z,53.42
2023-03-22T18:28:36.801Z,52.97
2023-03-22T18:31:08.863Z,53.22
2023-03-22T18:33:42.212Z,54.73
2023-03-22T18:36:19.674Z,53.62
2023-03-22T18:39:30.854Z,52.95
2023-03-22T18:41:49.136Z,53.60
2023-03-22T18:44:26.660Z,54.01
2023-03-22T18:46:58.183Z,53.71
2023-03-22T18:49:30.545Z,54.91
2023-03-22T18:54:43.748Z,56.46
2023-03-22T18:57:20.443Z,56.89
2023-03-22T18:59:58.600Z,57.66
2023-03-22T19:05:09.816Z,58.96
2023-03-22T19:07:55.590Z,59.58
2023-03-22T19:10:38.156Z,59.41
2023-03-22T19:13:09.811Z,59.85
2023-03-22T19:15:46.811Z,59.95
2023-03-22T19:18:22.606Z,59.39
2023-03-22T19:21:11.268Z,59.00
2023-03-22T19:23:51.316Z,58.97
2023-03-22T19:26:23.424Z,59.29
2023-03-22T19:28:56.772Z,59.09
2023-03-22T19:31:31.837Z,60.11
2023-03-22T19:34:06.460Z,58.96
2023-03-22T19:36:39.569Z,58.74
2023-03-22T19:39:15.188Z,58.66
2023-03-22T19:42:03.840Z,58.43
2023-03-22T19:44:40.685Z,58.84
2023-03-22T19:47:13.919Z,58.50
2023-03-22T19:49:46.258Z,59.26
2023-03-22T19:52:18.441Z,57.88
2023-03-22T19:54:54.996Z,58.12
2023-03-22T19:57:29.952Z,58.58
2023-03-22T20:00:43.802Z,58.37
2023-03-22T20:02:55.064Z,57.84
2023-03-22T20:05:27.865Z,58.21
2023-03-22T20:08:00.143Z,58.06
2023-03-22T20:10:34.959Z,58.32
2023-03-22T20:13:06.714Z,58.67
2023-03-22T20:15:39.806Z,57.72
2023-03-22T20:18:15.451Z,57.76
2023-03-22T20:20:47.435Z,57.75
2023-03-22T20:23:19.743Z,57.72
2023-03-22T20:26:01.332Z,57.32
2023-03-22T20:28:36.141Z,57.44
2023-03-22T20:31:12.240Z,57.96
2023-03-22T20:33:44.490Z,57.35
2023-03-22T20:36:17.241Z,58.19
2023-03-22T20:38:50.575Z,58.05
2023-03-22T20:41:25.170Z,57.85
2023-03-22T20:44:00.355Z,57.50
2023-03-22T20:46:32.349Z,58.46
2023-03-22T20:49:04.756Z,58.76
2023-03-22T20:51:36.995Z,58.63
2023-03-22T20:54:09.695Z,58.82
2023-03-22T20:56:44.537Z,58.68
2023-03-22T20:59:18.934Z,58.41
2023-03-22T21:01:51.228Z,59.09
2023-03-22T21:04:23.620Z,59.00
2023-03-22T21:06:55.800Z,58.97
2023-03-22T21:09:27.961Z,58.39
2023-03-22T21:12:02.545Z,59.07
2023-03-22T21:14:35.757Z,59.71
2023-03-22T21:17:07.736Z,59.56
2023-03-22T21:19:39.759Z,59.44
2023-03-22T21:22:13.091Z,59.79
2023-03-22T21:24:45.099Z,59.68
2023-03-22T21:27:20.813Z,59.48
2023-03-22T21:29:53.546Z,59.65
2023-03-22T21:32:26.427Z,59.96
2023-03-22T21:34:58.146Z,60.30
2023-03-22T21:37:32.309Z,61.03
2023-03-22T21:40:07.522Z,60.95
2023-03-22T21:42:47.200Z,61.52
2023-03-22T21:45:19.039Z,61.18
2023-03-22T21:47:53.556Z,61.15
2023-03-22T21:50:25.862Z,61.84
2023-03-22T21:52:57.553Z,61.40
2023-03-22T21:55:33.151Z,61.82
2023-03-22T21:58:08.131Z,61.64
2023-03-22T22:00:40.154Z,61.68
2023-03-22T22:03:12.566Z,61.66
2023-03-22T22:05:52.113Z,61.44
2023-03-22T22:08:24.714Z,61.39
2023-03-22T22:10:58.150Z,61.77
2023-03-22T22:13:35.057Z,61.94
2023-03-22T22:16:15.646Z,61.50
2023-03-22T22:18:47.410Z,61.98
2023-03-22T22:21:21.096Z,62.32
2023-03-22T22:23:53.808Z,62.14
2023-03-22T22:26:29.443Z,61.43
2023-03-22T22:29:07.262Z,61.72
2023-03-22T22:31:44.238Z,61.56
2023-03-22T22:34:16.668Z,61.25
2023-03-22T22:36:48.977Z,61.98
2023-03-22T22:39:20.526Z,61.44
2023-03-22T22:41:54.884Z,61.25
2023-03-22T22:44:29.223Z,60.84
2023-03-22T22:47:01.271Z,61.34
2023-03-22T22:49:34.559Z,61.26
2023-03-22T22:52:09.686Z,60.98
2023-03-22T22:54:41.255Z,61.24
2023-03-22T22:57:13.129Z,61.60
2023-03-22T22:59:47.466Z,61.34
2023-03-22T23:02:19.220Z,61.79
2023-03-22T23:04:52.940Z,61.98
2023-03-22T23:07:24.712Z,62.72
2023-03-22T23:09:57.276Z,62.60
2023-03-22T23:12:30.632Z,62.90
2023-03-22T23:15:06.249Z,63.06
2023-03-22T23:17:41.442Z,63.21
2023-03-22T23:20:14.155Z,63.12
2023-03-22T23:22:50.720Z,63.47
2023-03-22T23:25:22.432Z,63.76
2023-03-22T23:27:57.567Z,64.85
2023-03-22T23:30:32.406Z,64.40
2023-03-22T23:33:04.619Z,65.31
2023-03-22T23:35:36.829Z,65.21
2023-03-22T23:38:08.885Z,65.44
2023-03-22T23:40:58.318Z,66.21
2023-03-22T23:43:30.836Z,66.48
2023-03-22T23:46:06.226Z,66.75
2023-03-22T23:48:38.869Z,67.19
2023-03-22T23:51:13.205Z,67.11
2023-03-22T23:53:46.427Z,67.00
2023-03-22T23:56:21.795Z,67.13
2023-03-22T23:58:55.346Z,67.77
